createdAt,value
2023-05-01T00:01:52.396Z,8.40
2023-05-01T00:04:19.558Z,10.82
2023-05-01T00:06:47.035Z,9.07
2023-05-01T00:09:14.116Z,9.68
2023-05-01T00:11:41.112Z,13.93
2023-05-01T00:14:08.047Z,9.52
2023-05-01T00:16:36.607Z,12.23
2023-05-01T00:19:04.997Z,11.25
2023-05-01T00:21:31.876Z,9.48
2023-05-01T00:23:58.796Z,9.23
2023-05-01T00:26:30.559Z,18.23
2023-05-01T00:28:58.376Z,11.00
2023-05-01T00:31:26.092Z,11.15
2023-05-01T00:33:53.317Z,8.68
2023-05-01T00:36:20.532Z,13.77
2023-05-01T00:38:47.575Z,12.30
2023-05-01T00:41:14.741Z,13.15
2023-05-01T00:43:42.182Z,13.10
2023-05-01T00:46:10.039Z,16.90
2023-05-01T00:48:37.523Z,19.60
2023-05-01T00:51:08.638Z,16.52
2023-05-01T00:53:35.664Z,11.15
2023-05-01T00:56:02.725Z,5.88
2023-05-01T00:58:30.077Z,10.98
2023-05-01T01:00:57.464Z,7.50
2023-05-01T01:03:24.683Z,11.30
2023-05-01T01:06:04.933Z,10.93
2023-05-01T01:08:42.170Z,19.67
2023-05-01T01:11:23.195Z,7.93
2023-05-01T01:13:59.117Z,10.80
2023-05-01T01:16:39.827Z,9.25
2023-05-01T01:19:19.395Z,11.02
2023-05-01T01:21:54.602Z,9.75
2023-05-01T01:24:47.835Z,9.30
2023-05-01T01:27:40.837Z,10.43
2023-05-01T01:30:10.851Z,9.68
2023-05-01T01:33:04.080Z,7.78
2023-05-01T01:35:32.142Z,12.15
2023-05-01T01:38:07.371Z,8.45
2023-05-01T01:40:53.823Z,8.73
2023-05-01T01:43:23.088Z,12.95
2023-05-01T01:45:56.544Z,11.48
2023-05-01T01:48:28.069Z,8.73
2023-05-01T01:50:59.328Z,9.13
2023-05-01T01:53:29.646Z,8.63
2023-05-01T01:56:00.835Z,7.45
2023-05-01T01:58:31.155Z,12.40
2023-05-01T02:00:59.285Z,8.05
2023-05-01T02:03:27.393Z,8.23
2023-05-01T02:05:59.983Z,10.63
2023-05-01T02:08:30.851Z,10.93
2023-05-01T02:11:01.950Z,14.23
2023-05-01T02:13:30.324Z,10.07
2023-05-01T02:15:59.792Z,16.02
2023-05-01T02:18:31.058Z,11.68
2023-05-01T02:20:58.786Z,16.88
2023-05-01T02:23:28.638Z,12.10
2023-05-01T02:25:57.938Z,10.68
2023-05-01T02:28:27.075Z,7.72
2023-05-01T02:30:54.064Z,11.40
2023-05-01T02:33:21.066Z,8.45
2023-05-01T02:35:48.135Z,7.43
2023-05-01T02:38:16.270Z,8.55
2023-05-01T02:40:50.478Z,11.05
2023-05-01T02:43:20.932Z,14.80
2023-05-01T02:45:49.376Z,10.93
2023-05-01T02:48:21.890Z,10.93
2023-05-01T02:50:50.584Z,10.18
2023-05-01T02:53:18.852Z,13.48
2023-05-01T02:55:46.173Z,7.65
2023-05-01T02:58:19.737Z,13.13
2023-05-01T03:00:49.749Z,14.80
2023-05-01T03:03:17.499Z,11.82
2023-05-01T03:05:44.510Z,17.42
2023-05-01T03:08:11.725Z,7.80
2023-05-01T03:10:44.359Z,11.48
2023-05-01T03:13:12.220Z,13.38
2023-05-01T03:15:39.794Z,13.65
2023-05-01T03:18:07.786Z,12.63
2023-05-01T03:20:34.763Z,14.93
2023-05-01T03:23:02.005Z,18.52
2023-05-01T03:25:29.162Z,23.70
2023-05-01T03:27:56.290Z,23.48
2023-05-01T03:30:23.201Z,34.92
2023-05-01T03:32:51.728Z,32.95
2023-05-01T03:35:18.835Z,28.83
2023-05-01T03:37:45.837Z,33.08
2023-05-01T03:40:13.811Z,29.98
2023-05-01T03:42:40.753Z,17.30
2023-05-01T03:45:08.287Z,15.55
2023-05-01T03:47:35.219Z,24.73
2023-05-01T03:50:02.494Z,20.35
2023-05-01T03:52:29.418Z,26.98
2023-05-01T03:54:57.231Z,13.80
2023-05-01T03:57:24.299Z,13.85
2023-05-01T03:59:51.354Z,16.23
2023-05-01T04:02:19.645Z,17.98
2023-05-01T04:04:47.255Z,15.82
2023-05-01T04:07:14.466Z,16.00
2023-05-01T04:09:41.410Z,14.48
2023-05-01T04:12:08.367Z,14.02
2023-05-01T04:14:35.790Z,23.33
2023-05-01T04:17:02.748Z,16.90
2023-05-01T04:19:29.725Z,14.05
2023-05-01T04:21:56.842Z,17.30
2023-05-01T04:24:23.708Z,22.58
2023-05-01T04:26:50.777Z,19.77
2023-05-01T04:29:17.779Z,18.30
2023-05-01T04:31:50.921Z,14.52
2023-05-01T04:34:18.031Z,19.90
2023-05-01T04:36:44.955Z,13.65
2023-05-01T04:39:11.939Z,30.60
2023-05-01T04:41:38.955Z,16.38
2023-05-01T04:44:06.037Z,21.20
2023-05-01T04:46:33.622Z,13.73
2023-05-01T04:49:00.533Z,13.63
2023-05-01T04:51:29.089Z,12.95
2023-05-01T04:53:55.964Z,12.40
2023-05-01T04:56:23.102Z,16.73
2023-05-01T04:58:50.041Z,21.70
2023-05-01T05:01:17.008Z,13.10
2023-05-01T05:03:45.028Z,15.68
2023-05-01T05:06:13.625Z,24.33
2023-05-01T05:08:40.541Z,12.65
2023-05-01T05:11:07.632Z,25.05
2023-05-01T05:13:34.538Z,14.18
2023-05-01T05:16:01.550Z,14.05
2023-05-01T05:18:28.458Z,17.80
2023-05-01T05:20:55.438Z,16.33
2023-05-01T05:23:22.360Z,15.20
2023-05-01T05:25:49.327Z,14.18
2023-05-01T05:28:16.352Z,17.15
2023-05-01T05:30:43.566Z,19.63
2023-05-01T05:33:10.546Z,18.15
2023-05-01T05:35:37.524Z,18.23
2023-05-01T05:38:04.438Z,18.92
2023-05-01T05:40:31.396Z,24.05
2023-05-01T05:42:58.326Z,17.85
2023-05-01T05:45:25.408Z,21.63
2023-05-01T05:47:52.471Z,16.42
2023-05-01T05:50:19.382Z,16.38
2023-05-01T05:52:46.353Z,19.40
2023-05-01T05:55:13.287Z,19.95
2023-05-01T05:57:40.218Z,12.55
2023-05-01T06:00:09.397Z,17.42
2023-05-01T06:02:37.013Z,22.40
2023-05-01T06:05:04.291Z,21.23
2023-05-01T06:07:31.345Z,18.65
2023-05-01T06:10:05.089Z,20.80
2023-05-01T06:12:32.533Z,13.43
2023-05-01T06:15:00.698Z,24.35
2023-05-01T06:17:27.696Z,23.35
2023-05-01T06:19:55.201Z,21.20
2023-05-01T06:22:22.480Z,19.20
2023-05-01T06:24:49.563Z,17.35
2023-05-01T06:27:16.503Z,32.88
2023-05-01T06:29:43.392Z,18.00
2023-05-01T06:32:10.564Z,16.08
2023-05-01T06:34:37.488Z,18.63
2023-05-01T06:37:05.718Z,24.95
2023-05-01T06:39:32.610Z,21.40
2023-05-01T06:41:59.759Z,23.25
2023-05-01T06:44:26.789Z,28.90
2023-05-01T06:46:53.740Z,22.67
2023-05-01T06:49:20.807Z,16.80
2023-05-01T06:51:47.856Z,20.00
2023-05-01T06:54:14.833Z,13.70
2023-05-01T06:56:41.900Z,15.23
2023-05-01T06:59:09.025Z,29.15
2023-05-01T07:01:36.425Z,19.52
2023-05-01T07:04:04.076Z,9.73
2023-05-01T07:06:32.351Z,13.68
2023-05-01T07:08:59.372Z,20.38
2023-05-01T07:11:26.962Z,14.88
2023-05-01T07:13:54.798Z,10.90
2023-05-01T07:16:22.131Z,14.80
2023-05-01T07:18:49.100Z,15.55
2023-05-01T07:21:16.200Z,14.93
2023-05-01T07:23:43.156Z,16.08
2023-05-01T07:26:10.167Z,10.00
2023-05-01T07:28:37.126Z,17.55
2023-05-01T07:31:04.449Z,9.05
2023-05-01T07:33:31.628Z,14.40
2023-05-01T07:35:58.615Z,11.15
2023-05-01T07:38:26.341Z,13.68
2023-05-01T07:40:54.113Z,14.35
2023-05-01T07:43:21.045Z,19.35
2023-05-01T07:45:59.054Z,8.27
2023-05-01T07:48:27.924Z,12.15
2023-05-01T07:50:56.609Z,10.05
2023-05-01T07:53:23.866Z,9.85
2023-05-01T07:55:51.174Z,21.58
2023-05-01T07:58:18.272Z,15.10
2023-05-01T08:00:45.614Z,14.82
2023-05-01T08:03:13.259Z,14.75
2023-05-01T08:05:41.723Z,7.60
2023-05-01T08:08:09.515Z,13.00
2023-05-01T08:10:36.702Z,6.40
2023-05-01T08:13:03.800Z,7.65
2023-05-01T08:15:30.787Z,12.10
2023-05-01T08:17:57.894Z,11.25
2023-05-01T08:20:25.377Z,13.77
2023-05-01T08:22:52.529Z,8.82
2023-05-01T08:25:19.587Z,10.85
2023-05-01T08:27:46.557Z,12.93
2023-05-01T08:30:13.591Z,8.40
2023-05-01T08:32:40.632Z,10.68
2023-05-01T08:35:08.224Z,7.93
2023-05-01T08:37:35.449Z,9.40
2023-05-01T08:40:08.356Z,9.20
2023-05-01T08:42:39.069Z,6.47
2023-05-01T08:45:10.174Z,7.13
2023-05-01T08:47:39.344Z,9.68
2023-05-01T08:50:13.327Z,8.65
2023-05-01T08:52:44.051Z,8.82
2023-05-01T08:55:14.316Z,13.15
2023-05-01T08:57:48.721Z,8.20
2023-05-01T09:00:20.560Z,8.38
2023-05-01T09:02:49.762Z,9.55
2023-05-01T09:05:18.930Z,8.65
2023-05-01T09:07:46.783Z,12.70
2023-05-01T09:10:16.189Z,7.43
2023-05-01T09:12:46.956Z,13.32
2023-05-01T09:15:14.228Z,8.15
2023-05-01T09:17:42.859Z,7.60
2023-05-01T09:20:10.857Z,6.07
2023-05-01T09:22:37.996Z,8.15
2023-05-01T09:25:05.259Z,5.20
2023-05-01T09:27:36.871Z,3.20
2023-05-01T09:30:09.140Z,12.90
2023-05-01T09:32:36.163Z,5.95
2023-05-01T09:35:14.599Z,12.82
2023-05-01T09:37:42.070Z,4.57
2023-05-01T09:40:12.156Z,6.70
2023-05-01T09:42:55.157Z,6.38
2023-05-01T09:45:23.562Z,9.98
2023-05-01T09:47:50.664Z,10.38
2023-05-01T09:50:32.436Z,9.07
2023-05-01T09:53:02.071Z,8.93
2023-05-01T09:55:29.048Z,12.07
2023-05-01T09:57:56.060Z,11.15
2023-05-01T10:00:23.023Z,10.57
2023-05-01T10:02:50.841Z,11.68
2023-05-01T10:05:19.140Z,9.90
2023-05-01T10:07:57.892Z,8.90
2023-05-01T10:10:25.276Z,12.48
2023-05-01T10:12:52.277Z,7.90
2023-05-01T10:15:26.304Z,12.52
2023-05-01T10:17:54.721Z,7.40
2023-05-01T10:20:22.162Z,5.88
2023-05-01T10:22:49.712Z,4.32
2023-05-01T10:25:18.874Z,4.03
2023-05-01T10:27:46.156Z,9.10
2023-05-01T10:30:13.207Z,8.88
2023-05-01T10:32:43.183Z,3.58
2023-05-01T10:35:21.938Z,6.80
2023-05-01T10:37:57.632Z,6.30
2023-05-01T10:40:39.820Z,2.95
2023-05-01T10:43:31.194Z,6.88
2023-05-01T10:46:10.506Z,4.22
2023-05-01T10:48:40.918Z,7.75
2023-05-01T10:51:12.110Z,5.28
2023-05-01T10:53:40.831Z,4.63
2023-05-01T10:56:42.865Z,5.68
2023-05-01T10:59:10.773Z,3.22
2023-05-01T11:01:41.688Z,3.10
2023-05-01T11:04:24.808Z,6.80
2023-05-01T11:09:43.789Z,1.67
2023-05-01T11:12:15.226Z,5.82
2023-05-01T11:15:09.640Z,2.97
2023-05-01T11:17:43.138Z,3.83
2023-05-01T11:20:11.399Z,4.78
2023-05-01T11:22:40.974Z,7.18
2023-05-01T11:25:25.502Z,4.80
2023-05-01T11:27:58.210Z,9.35
2023-05-01T11:30:26.013Z,3.13
2023-05-01T11:32:53.093Z,3.00
2023-05-01T11:35:28.588Z,2.85
2023-05-01T11:37:56.002Z,3.80
2023-05-01T11:40:27.070Z,13.23
2023-05-01T11:43:07.800Z,5.03
2023-05-01T11:45:38.040Z,3.50
2023-05-01T11:48:14.185Z,7.03
2023-05-01T11:50:41.423Z,4.53
2023-05-01T11:53:17.712Z,3.58
2023-05-01T11:55:45.580Z,4.55
2023-05-01T11:58:13.171Z,4.65
2023-05-01T12:00:43.105Z,26.98
2023-05-01T12:03:12.646Z,7.40
2023-05-01T12:05:44.578Z,3.28
2023-05-01T12:08:22.267Z,1.70
2023-05-01T12:10:58.065Z,4.78
2023-05-01T12:13:26.967Z,2.35
2023-05-01T12:15:55.767Z,2.92
2023-05-01T12:18:23.135Z,1.77
2023-05-01T12:20:53.051Z,4.25
2023-05-01T12:23:36.036Z,2.80
2023-05-01T12:26:15.786Z,5.55
2023-05-01T12:28:54.481Z,7.47
2023-05-01T12:31:22.268Z,6.25
2023-05-01T12:33:56.922Z,2.90
2023-05-01T12:36:25.471Z,1.88
2023-05-01T12:39:06.811Z,4.43
2023-05-01T12:41:41.977Z,1.92
2023-05-01T12:44:22.460Z,3.42
2023-05-01T12:47:03.941Z,5.13
2023-05-01T12:49:32.525Z,6.32
2023-05-01T12:52:04.902Z,3.00
2023-05-01T12:54:39.114Z,4.07
2023-05-01T12:57:11.829Z,2.97
2023-05-01T12:59:40.084Z,3.30
2023-05-01T13:02:10.934Z,3.78
2023-05-01T13:04:38.813Z,2.97
2023-05-01T13:07:16.931Z,6.07
2023-05-01T13:09:58.754Z,4.22
2023-05-01T13:12:27.656Z,3.75
2023-05-01T13:14:55.204Z,6.75
2023-05-01T13:17:25.807Z,2.55
2023-05-01T13:20:01.079Z,9.60
2023-05-01T13:22:33.878Z,3.88
2023-05-01T13:25:03.863Z,1.50
2023-05-01T13:27:31.048Z,4.43
2023-05-01T13:29:59.681Z,9.35
2023-05-01T13:32:27.679Z,4.88
2023-05-01T13:34:54.683Z,9.18
2023-05-01T13:37:22.364Z,4.53
2023-05-01T13:39:49.305Z,5.90
2023-05-01T13:42:24.752Z,6.45
2023-05-01T13:44:54.164Z,5.28
2023-05-01T13:47:23.354Z,6.93
2023-05-01T13:49:50.715Z,4.68
2023-05-01T13:52:19.094Z,4.95
2023-05-01T13:54:47.624Z,5.40
2023-05-01T13:57:18.201Z,8.98
2023-05-01T13:59:46.826Z,5.30
2023-05-01T14:02:28.316Z,6.30
2023-05-01T14:04:58.167Z,2.78
2023-05-01T14:07:26.724Z,4.57
2023-05-01T14:09:56.032Z,7.05
2023-05-01T14:12:31.746Z,5.57
2023-05-01T14:15:03.432Z,5.53
2023-05-01T14:17:35.665Z,5.00
2023-05-01T14:20:04.906Z,2.92
2023-05-01T14:22:43.336Z,3.72
2023-05-01T14:25:27.289Z,7.25
2023-05-01T14:30:37.306Z,5.00
2023-05-01T14:33:08.690Z,5.90
2023-05-01T14:35:36.555Z,6.93
2023-05-01T14:38:16.707Z,5.57
2023-05-01T14:40:44.826Z,4.82
2023-05-01T14:43:16.526Z,3.92
2023-05-01T14:45:50.284Z,3.80
2023-05-01T14:48:34.401Z,5.55
2023-05-01T14:53:32.668Z,4.88
2023-05-01T14:55:59.728Z,7.20
2023-05-01T14:58:26.779Z,5.43
2023-05-01T15:00:53.673Z,5.30
2023-05-01T15:03:20.687Z,11.65
2023-05-01T15:05:47.872Z,5.28
2023-05-01T15:08:14.990Z,10.65
2023-05-01T15:10:42.283Z,6.60
2023-05-01T15:13:09.412Z,6.55
2023-05-01T15:15:36.525Z,14.35
2023-05-01T15:18:04.249Z,7.65
2023-05-01T15:20:31.654Z,9.27
2023-05-01T15:22:58.850Z,11.73
2023-05-01T15:25:26.085Z,10.95
2023-05-01T15:27:53.087Z,11.82
2023-05-01T15:30:20.238Z,6.78
2023-05-01T15:32:47.559Z,31.65
2023-05-01T15:35:14.845Z,12.02
2023-05-01T15:37:42.217Z,17.17
2023-05-01T15:40:09.546Z,14.93
2023-05-01T15:42:36.482Z,13.73
2023-05-01T15:45:03.757Z,12.55
2023-05-01T15:47:30.848Z,12.55
2023-05-01T15:49:57.993Z,15.02
2023-05-01T15:52:25.723Z,14.50
2023-05-01T15:54:52.690Z,13.40
2023-05-01T15:57:19.583Z,14.13
2023-05-01T15:59:51.299Z,18.40
2023-05-01T16:02:18.357Z,14.57
2023-05-01T16:04:48.526Z,20.80
2023-05-01T16:07:15.561Z,11.00
2023-05-01T16:09:42.701Z,13.27
2023-05-01T16:12:09.677Z,9.93
2023-05-01T16:14:40.319Z,10.85
2023-05-01T16:17:07.861Z,12.68
2023-05-01T16:19:37.915Z,11.32
2023-05-01T16:22:06.800Z,11.43
2023-05-01T16:24:34.649Z,13.70
2023-05-01T16:27:01.879Z,9.98
2023-05-01T16:29:28.967Z,13.70
2023-05-01T16:31:55.941Z,11.15
2023-05-01T16:34:25.503Z,15.40
2023-05-01T16:36:53.019Z,13.02
2023-05-01T16:39:22.203Z,10.82
2023-05-01T16:41:53.898Z,14.50
2023-05-01T16:44:22.575Z,15.05
2023-05-01T16:46:56.294Z,11.38
2023-05-01T16:51:51.048Z,16.60
2023-05-01T16:54:18.460Z,16.00
2023-05-01T16:56:45.562Z,13.48
2023-05-01T16:59:12.539Z,11.77
2023-05-01T17:01:39.460Z,16.73
2023-05-01T17:04:06.767Z,14.65
2023-05-01T17:06:34.055Z,12.80
2023-05-01T17:09:00.993Z,10.52
2023-05-01T17:11:30.337Z,16.58
2023-05-01T17:13:58.860Z,15.10
2023-05-01T17:16:25.818Z,24.40
2023-05-01T17:18:52.787Z,16.85
2023-05-01T17:21:20.008Z,18.65
2023-05-01T17:23:46.942Z,12.77
2023-05-01T17:26:16.008Z,17.55
2023-05-01T17:28:46.592Z,16.98
2023-05-01T17:31:14.782Z,19.92
2023-05-01T17:33:42.932Z,23.75
2023-05-01T17:36:09.982Z,19.13
2023-05-01T17:38:36.936Z,19.95
2023-05-01T17:41:03.957Z,21.98
2023-05-01T17:43:30.999Z,20.17
2023-05-01T17:45:58.070Z,21.92
2023-05-01T17:48:25.026Z,30.85
2023-05-01T17:50:52.270Z,24.90
2023-05-01T17:53:19.227Z,22.98
2023-05-01T17:55:46.546Z,22.55
2023-05-01T17:58:13.716Z,21.63
2023-05-01T18:00:41.275Z,22.42
2023-05-01T18:03:08.893Z,18.48
2023-05-01T18:05:36.099Z,21.90
2023-05-01T18:08:03.363Z,18.58
2023-05-01T18:10:31.377Z,18.30
2023-05-01T18:12:58.770Z,15.82
2023-05-01T18:15:26.237Z,15.50
2023-05-01T18:17:53.320Z,14.27
2023-05-01T18:20:20.424Z,12.35
2023-05-01T18:22:47.368Z,10.52
2023-05-01T18:25:16.288Z,13.02
2023-05-01T18:27:44.766Z,11.52
2023-05-01T18:30:12.127Z,11.38
2023-05-01T18:32:46.822Z,14.55
2023-05-01T18:35:18.043Z,12.15
2023-05-01T18:37:45.078Z,12.95
2023-05-01T18:40:12.834Z,13.98
2023-05-01T18:42:43.288Z,10.35
2023-05-01T18:45:10.620Z,19.73
2023-05-01T18:47:37.801Z,14.45
2023-05-01T18:50:07.842Z,13.30
2023-05-01T18:52:37.141Z,15.73
2023-05-01T18:55:04.664Z,17.00
2023-05-01T18:57:32.580Z,15.35
2023-05-01T19:00:01.326Z,17.27
2023-05-01T19:02:28.708Z,14.02
2023-05-01T19:04:57.945Z,15.68
2023-05-01T19:07:28.157Z,17.27
2023-05-01T19:09:55.432Z,17.90
2023-05-01T19:12:22.415Z,17.23
2023-05-01T19:14:49.408Z,18.60
2023-05-01T19:17:16.526Z,20.38
2023-05-01T19:19:43.573Z,17.40
2023-05-01T19:22:10.724Z,16.98
2023-05-01T19:24:37.703Z,21.20
2023-05-01T19:27:04.716Z,19.42
2023-05-01T19:29:32.282Z,19.60
2023-05-01T19:32:02.116Z,22.70
2023-05-01T19:34:29.355Z,22.00
2023-05-01T19:37:00.323Z,18.80
2023-05-01T19:39:28.922Z,28.45
2023-05-01T19:41:56.040Z,26.23
2023-05-01T19:44:23.078Z,30.13
2023-05-01T19:46:50.144Z,33.38
2023-05-01T19:49:17.072Z,31.80
2023-05-01T19:51:45.657Z,32.10
2023-05-01T19:54:12.653Z,31.60
2023-05-01T19:56:39.641Z,31.52
2023-05-01T19:59:06.821Z,31.83
2023-05-01T20:01:33.827Z,27.17
2023-05-01T20:04:00.932Z,29.65
2023-05-01T20:06:28.020Z,29.55
2023-05-01T20:08:54.994Z,31.20
2023-05-01T20:11:21.858Z,27.55
2023-05-01T20:13:48.774Z,30.30
2023-05-01T20:16:15.810Z,28.08
2023-05-01T20:18:42.912Z,38.45
2023-05-01T20:21:09.812Z,32.47
2023-05-01T20:23:36.746Z,33.15
2023-05-01T20:26:04.343Z,31.13
2023-05-01T20:28:31.336Z,39.53
2023-05-01T20:30:58.456Z,34.75
2023-05-01T20:33:25.883Z,33.17
2023-05-01T20:35:53.049Z,38.60
2023-05-01T20:38:21.630Z,39.70
2023-05-01T20:40:48.656Z,36.65
2023-05-01T20:43:15.611Z,37.00
2023-05-01T20:45:42.805Z,37.22
2023-05-01T20:48:11.069Z,36.38
2023-05-01T20:50:38.127Z,34.22
2023-05-01T20:53:05.134Z,44.22
2023-05-01T20:55:32.064Z,39.15
2023-05-01T20:57:59.041Z,42.50
2023-05-01T21:00:26.180Z,45.30
2023-05-01T21:02:53.310Z,41.30
2023-05-01T21:05:20.423Z,40.85
2023-05-01T21:07:48.057Z,42.03
2023-05-01T21:10:16.657Z,40.78
2023-05-01T21:12:43.742Z,40.53
2023-05-01T21:15:11.696Z,37.85
2023-05-01T21:17:40.501Z,39.80
2023-05-01T21:20:25.117Z,43.20
2023-05-01T21:22:52.004Z,39.60
2023-05-01T21:25:27.982Z,40.08
2023-05-01T21:27:54.935Z,48.22
2023-05-01T21:30:34.694Z,33.15
2023-05-01T21:33:04.186Z,39.72
2023-05-01T21:35:31.664Z,38.97
2023-05-01T21:37:59.023Z,32.00
2023-05-01T21:40:27.015Z,34.85
2023-05-01T21:42:54.855Z,36.47
2023-05-01T21:45:22.252Z,38.78
2023-05-01T21:47:53.224Z,34.80
2023-05-01T21:50:21.483Z,33.63
2023-05-01T21:52:49.828Z,30.15
2023-05-01T21:55:21.805Z,25.08
2023-05-01T21:57:51.878Z,28.58
2023-05-01T22:00:21.300Z,32.75
2023-05-01T22:02:49.838Z,28.45
2023-05-01T22:05:19.803Z,30.67
2023-05-01T22:07:47.382Z,28.42
2023-05-01T22:10:18.897Z,30.52
2023-05-01T22:12:46.179Z,28.73
2023-05-01T22:15:13.921Z,29.42
2023-05-01T22:17:41.261Z,30.48
2023-05-01T22:20:09.161Z,31.90
2023-05-01T22:22:37.072Z,34.33
2023-05-01T22:25:06.508Z,32.85
2023-05-01T22:27:33.978Z,36.75
2023-05-01T22:30:01.710Z,30.38
2023-05-01T22:32:29.222Z,28.10
2023-05-01T22:34:56.322Z,26.17
2023-05-01T22:37:25.454Z,28.80
2023-05-01T22:39:53.583Z,22.70
2023-05-01T22:42:20.975Z,19.58
2023-05-01T22:44:48.265Z,20.30
2023-05-01T22:47:15.332Z,16.38
2023-05-01T22:49:50.210Z,25.70
2023-05-01T22:52:17.274Z,18.27
2023-05-01T22:54:44.266Z,17.25
2023-05-01T22:57:11.256Z,22.00
2023-05-01T22:59:40.427Z,15.68
2023-05-01T23:02:07.467Z,13.73
2023-05-01T23:04:34.659Z,14.38
2023-05-01T23:07:01.619Z,13.85
2023-05-01T23:09:32.133Z,22.83
2023-05-01T23:11:59.193Z,23.48
2023-05-01T23:14:26.203Z,30.67
2023-05-01T23:16:53.203Z,21.85
2023-05-01T23:19:24.789Z,22.80
2023-05-01T23:22:18.015Z,24.73
2023-05-01T23:24:49.342Z,22.83
2023-05-01T23:27:18.048Z,13.68
2023-05-01T23:30:05.669Z,20.42
2023-05-01T23:32:34.073Z,22.83
2023-05-01T23:35:14.117Z,18.48
2023-05-01T23:37:41.199Z,12.88
2023-05-01T23:40:08.996Z,23.63
2023-05-01T23:42:38.255Z,13.48
2023-05-01T23:45:06.677Z,16.77
2023-05-01T23:47:34.204Z,16.80
2023-05-01T23:50:01.897Z,17.13
2023-05-01T23:52:29.485Z,13.30
2023-05-01T23:54:56.554Z,20.90
2023-05-01T23:57:23.753Z,11.40
2023-05-01T23:59:50.704Z,9.10
